sensor_id;sensor_type;location;lat;lon;timestamp;P1;P4;P2;P0;N10;N4;N25;N1;N05;TS
78519;SPS30;67818;51.986;5.648;2023-11-19T00:01:34;6.0;6.0;6.0;5.7;;;;1.0;102.0;
78519;SPS30;67818;51.986;5.648;2023-11-19T00:04:03;6.0;6.0;6.0;5.7;;;;1.0;99.0;
78519;SPS30;67818;51.986;5.648;2023-11-19T00:06:32;5.4;5.4;5.4;5.1;;;;1.0;98.0;
78519;SPS30;67818;51.986;5.648;2023-11-19T00:09:02;5.5;5.5;5.5;5.2;;;;1.0;92.0;
78519;SPS30;67818;51.986;5.648;2023-11-19T00:11:35;5.3;5.3;5.3;5.1;;;;1.0;92.0;
78519;SPS30;67818;51.986;5.648;2023-11-19T00:14:07;4.9;4.9;4.9;4.6;;;;1.0;92.0;
78519;SPS30;67818;51.986;5.648;2023-11-19T00:16:35;4.9;4.9;4.9;4.7;;;;1.0;93.0;
78519;SPS30;67818;51.986;5.648;2023-11-19T00:19:06;5.6;5.6;5.6;5.3;;;;1.0;92.0;
78519;SPS30;67818;51.986;5.648;2023-11-19T00:21:34;5.0;5.0;5.0;4.8;;;;1.0;84.0;
78519;SPS30;67818;51.986;5.648;2023-11-19T00:24:05;5.2;5.2;5.2;5.0;;;;1.0;84.0;
78519;SPS30;67818;51.986;5.648;2023-11-19T00:26:35;5.1;5.1;5.1;4.8;;;;1.0;84.0;
78519;SPS30;67818;51.986;5.648;2023-11-19T00:29:04;5.2;5.2;5.2;4.9;;;;1.0;81.0;
78519;SPS30;67818;51.986;5.648;2023-11-19T00:31:33;5.4;5.3;5.2;4.8;;;;1.0;79.0;
78519;SPS30;67818;51.986;5.648;2023-11-19T00:34:02;5.7;5.6;5.4;4.9;;;;1.0;73.0;
78519;SPS30;67818;51.986;5.648;2023-11-19T00:36:32;5.4;5.3;5.2;4.7;;;;1.0;67.0;
78519;SPS30;67818;51.986;5.648;2023-11-19T00:39:01;5.6;5.5;5.3;4.8;;;;1.0;61.0;
78519;SPS30;67818;51.986;5.648;2023-11-19T00:41:32;5.5;5.5;5.2;4.8;;;;1.0;60.0;
78519;SPS30;67818;51.986;5.648;2023-11-19T00:44:01;6.1;6.0;5.7;5.1;;;;1.0;58.0;
78519;SPS30;67818;51.986;5.648;2023-11-19T00:46:31;6.0;5.8;5.6;5.0;;;;1.0;55.0;
78519;SPS30;67818;51.986;5.648;2023-11-19T00:49:01;5.2;5.1;4.9;4.5;;;;1.0;55.0;
78519;SPS30;67818;51.986;5.648;2023-11-19T00:51:31;6.2;6.1;5.9;5.3;;;;1.0;57.0;
78519;SPS30;67818;51.986;5.648;2023-11-19T00:54:00;5.8;5.7;5.6;5.1;;;;1.0;57.0;
78519;SPS30;67818;51.986;5.648;2023-11-19T00:56:31;5.4;5.3;5.1;4.6;;;;1.0;57.0;
78519;SPS30;67818;51.986;5.648;2023-11-19T00:58:59;6.4;6.2;5.9;5.2;;;;1.0;57.0;
78519;SPS30;67818;51.986;5.648;2023-11-19T01:01:28;6.2;6.1;5.7;5.0;;;;1.0;56.0;
78519;SPS30;67818;51.986;5.648;2023-11-19T01:03:56;6.4;6.2;5.7;4.9;;;;1.0;54.0;
78519;SPS30;67818;51.986;5.648;2023-11-19T01:06:29;6.2;6.0;5.6;4.9;;;;1.0;53.0;
78519;SPS30;67818;51.986;5.648;2023-11-19T01:08:58;5.4;5.2;4.9;4.3;;;;1.0;52.0;
78519;SPS30;67818;51.986;5.648;2023-11-19T01:11:27;6.3;6.1;5.7;5.0;;;;1.0;54.0;
78519;SPS30;67818;51.986;5.648;2023-11-19T01:13:56;4.6;4.5;4.3;3.8;;;;1.0;56.0;
78519;SPS30;67818;51.986;5.648;2023-11-19T01:16:26;6.7;6.4;5.9;5.0;;;;1.0;57.0;
78519;SPS30;67818;51.986;5.648;2023-11-19T01:18:56;6.8;6.5;5.9;4.9;;;;1.0;55.0;
78519;SPS30;67818;51.986;5.648;2023-11-19T01:21:24;7.2;6.8;6.1;4.9;;;;1.0;53.0;
78519;SPS30;67818;51.986;5.648;2023-11-19T01:23:54;6.7;6.4;5.7;4.7;;;;1.0;50.0;
78519;SPS30;67818;51.986;5.648;2023-11-19T01:26:22;6.3;6.0;5.5;4.6;;;;1.0;47.0;
78519;SPS30;67818;51.986;5.648;2023-11-19T01:28:53;6.4;6.1;5.5;4.5;;;;1.0;47.0;
78519;SPS30;67818;51.986;5.648;2023-11-19T01:31:21;6.4;6.1;5.4;4.4;;;;1.0;49.0;
78519;SPS30;67818;51.986;5.648;2023-11-19T01:33:49;6.1;5.9;5.3;4.4;;;;1.0;53.0;
78519;SPS30;67818;51.986;5.648;2023-11-19T01:36:18;7.2;6.8;6.0;4.7;;;;1.0;50.0;
78519;SPS30;67818;51.986;5.648;2023-11-19T01:38:49;6.6;6.2;5.3;4.1;;;;1.0;49.0;
78519;SPS30;67818;51.986;5.648;2023-11-19T01:41:18;7.2;6.8;5.8;4.5;;;;1.0;45.0;
78519;SPS30;67818;51.986;5.648;2023-11-19T01:43:46;7.9;7.4;6.2;4.6;;;;1.0;44.0;
78519;SPS30;67818;51.986;5.648;2023-11-19T01:46:15;7.5;7.0;5.9;4.3;;;;1.0;44.0;
78519;SPS30;67818;51.986;5.648;2023-11-19T01:48:44;8.0;7.4;6.1;4.3;;;;1.0;44.0;
78519;SPS30;67818;51.986;5.648;2023-11-19T01:51:14;7.6;7.1;5.9;4.3;;;;1.0;45.0;
78519;SPS30;67818;51.986;5.648;2023-11-19T01:53:46;7.5;6.9;5.8;4.2;;;;1.0;45.0;
78519;SPS30;67818;51.986;5.648;2023-11-19T01:56:15;7.3;6.8;5.8;4.3;;;;1.0;45.0;
78519;SPS30;67818;51.986;5.648;2023-11-19T01:58:44;8.3;7.7;6.3;4.3;;;;1.0;45.0;
78519;SPS30;67818;51.986;5.648;2023-11-19T02:01:15;8.0;7.4;6.1;4.2;;;;1.0;45.0;
78519;SPS30;67818;51.986;5.648;2023-11-19T02:03:44;10.1;9.2;7.5;5.2;;;;1.0;47.0;
78519;SPS30;67818;51.986;5.648;2023-11-19T02:06:15;9.2;8.5;6.9;4.8;;;;1.0;46.0;
78519;SPS30;67818;51.986;5.648;2023-11-19T02:08:44;8.1;7.4;5.9;4.0;;;;1.0;41.0;
78519;SPS30;67818;51.986;5.648;2023-11-19T02:11:13;8.2;7.4;5.9;3.8;;;;1.0;40.0;
78519;SPS30;67818;51.986;5.648;2023-11-19T02:13:43;9.5;8.6;6.6;4.0;;;;1.0;36.0;
78519;SPS30;67818;51.986;5.648;2023-11-19T02:16:12;9.6;8.7;6.7;4.0;;;;1.0;34.0;
78519;SPS30;67818;51.986;5.648;2023-11-19T02:18:42;10.0;9.0;6.9;4.2;;;;1.0;33.0;
78519;SPS30;67818;51.986;5.648;2023-11-19T02:21:10;12.4;11.1;8.5;4.9;;;;1.0;32.0;
78519;SPS30;67818;51.986;5.648;2023-11-19T02:23:41;11.0;9.8;7.4;4.3;;;;1.0;31.0;
78519;SPS30;67818;51.986;5.648;2023-11-19T02:26:12;10.3;9.3;7.1;4.1;;;;1.0;26.0;
78519;SPS30;67818;51.986;5.648;2023-11-19T02:28:48;12.4;11.0;8.1;4.4;;;;1.0;24.0;
78519;SPS30;67818;51.986;5.648;2023-11-19T02:31:20;11.3;10.0;7.4;4.0;;;;1.0;24.0;
78519;SPS30;67818;51.986;5.648;2023-11-19T02:33:49;11.7;10.4;7.7;4.2;;;;1.0;23.0;
78519;SPS30;67818;51.986;5.648;2023-11-19T02:36:19;10.9;9.8;7.3;4.1;;;;1.0;22.0;
78519;SPS30;67818;51.986;5.648;2023-11-19T02:38:49;10.7;9.6;7.2;4.1;;;;1.0;22.0;
78519;SPS30;67818;51.986;5.648;2023-11-19T02:41:19;13.6;12.2;9.2;5.2;;;;1.0;23.0;
78519;SPS30;67818;51.986;5.648;2023-11-19T02:43:48;13.2;11.8;8.8;4.9;;;;1.0;22.0;
78519;SPS30;67818;51.986;5.648;2023-11-19T02:46:16;11.2;10.0;7.4;4.1;;;;1.0;22.0;
78519;SPS30;67818;51.986;5.648;2023-11-19T02:48:45;15.6;13.8;10.0;5.1;;;;1.0;20.0;
78519;SPS30;67818;51.986;5.648;2023-11-19T02:51:13;12.7;11.3;8.3;4.4;;;;1.0;18.0;
78519;SPS30;67818;51.986;5.648;2023-11-19T02:53:45;13.3;11.7;8.4;4.1;;;;1.0;16.0;
78519;SPS30;67818;51.986;5.648;2023-11-19T02:56:14;15.4;13.6;9.7;4.7;;;;1.0;15.0;
78519;SPS30;67818;51.986;5.648;2023-11-19T02:58:50;17.1;15.1;10.9;5.4;;;;1.0;15.0;
78519;SPS30;67818;51.986;5.648;2023-11-19T03:01:23;13.1;11.7;8.5;4.4;;;;1.0;15.0;
78519;SPS30;67818;51.986;5.648;2023-11-19T03:03:56;15.0;13.3;9.6;4.8;;;;1.0;15.0;
78519;SPS30;67818;51.986;5.648;2023-11-19T03:06:27;15.8;14.0;10.2;5.4;;;;1.0;14.0;
78519;SPS30;67818;51.986;5.648;2023-11-19T03:08:56;15.4;13.6;9.7;4.8;;;;1.0;12.0;
78519;SPS30;67818;51.986;5.648;2023-11-19T03:11:30;13.6;12.0;8.7;4.4;;;;1.0;12.0;
78519;SPS30;67818;51.986;5.648;2023-11-19T03:14:00;17.2;15.2;10.9;5.5;;;;1.0;12.0;
78519;SPS30;67818;51.986;5.648;2023-11-19T03:16:30;16.9;14.9;10.6;5.1;;;;1.0;12.0;
78519;SPS30;67818;51.986;5.648;2023-11-19T03:19:00;17.8;15.7;11.1;5.2;;;;1.0;11.0;
78519;SPS30;67818;51.986;5.648;2023-11-19T03:21:30;17.7;15.6;11.1;5.5;;;;1.0;11.0;
78519;SPS30;67818;51.986;5.648;2023-11-19T03:24:00;15.9;14.1;10.1;5.1;;;;1.0;11.0;
78519;SPS30;67818;51.986;5.648;2023-11-19T03:26:29;19.0;16.8;12.0;6.0;;;;1.0;11.0;
78519;SPS30;67818;51.986;5.648;2023-11-19T03:29:00;16.1;14.2;10.1;5.0;;;;1.0;11.0;
78519;SPS30;67818;51.986;5.648;2023-11-19T03:31:28;15.3;13.5;9.6;4.8;;;;1.0;11.0;
78519;SPS30;67818;51.986;5.648;2023-11-19T03:33:57;17.0;15.0;10.7;5.2;;;;1.0;12.0;
78519;SPS30;67818;51.986;5.648;2023-11-19T03:36:25;16.5;14.6;10.5;5.3;;;;1.0;13.0;
78519;SPS30;67818;51.986;5.648;2023-11-19T03:39:05;14.9;13.1;9.4;4.7;;;;1.0;12.0;
78519;SPS30;67818;51.986;5.648;2023-11-19T03:41:36;16.8;14.8;10.6;5.1;;;;1.0;12.0;
78519;SPS30;67818;51.986;5.648;2023-11-19T03:44:04;17.2;15.1;10.8;5.2;;;;1.0;12.0;
78519;SPS30;67818;51.986;5.648;2023-11-19T03:46:34;16.8;14.8;10.5;5.0;;;;1.0;12.0;
78519;SPS30;67818;51.986;5.648;2023-11-19T03:49:02;15.4;13.6;9.9;5.0;;;;2.0;12.0;
78519;SPS30;67818;51.986;5.648;2023-11-19T03:51:33;16.1;14.3;10.4;5.3;;;;2.0;11.0;
78519;SPS30;67818;51.986;5.648;2023-11-19T03:54:02;17.3;15.2;10.8;5.2;;;;2.0;10.0;
78519;SPS30;67818;51.986;5.648;2023-11-19T03:56:32;17.2;15.1;10.8;5.3;;;;2.0;10.0;
78519;SPS30;67818;51.986;5.648;2023-11-19T03:59:01;16.3;14.3;10.2;5.0;;;;2.0;9.0;
78519;SPS30;67818;51.986;5.648;2023-11-19T04:01:31;16.3;14.4;10.3;5.0;;;;2.0;9.0;
78519;SPS30;67818;51.986;5.648;2023-11-19T04:04:00;19.1;16.8;11.7;5.3;;;;2.0;9.0;
78519;SPS30;67818;51.986;5.648;2023-11-19T04:06:28;18.5;16.2;11.4;5.2;;;;2.0;9.0;
78519;SPS30;67818;51.986;5.648;2023-11-19T04:08:57;18.0;15.8;11.2;5.3;;;;2.0;9.0;
78519;SPS30;67818;51.986;5.648;2023-11-19T04:11:26;17.5;15.4;10.9;5.2;;;;2.0;8.0;
78519;SPS30;67818;51.986;5.648;2023-11-19T04:13:55;15.9;14.1;10.1;5.0;;;;2.0;8.0;
78519;SPS30;67818;51.986;5.648;2023-11-19T04:16:27;17.8;15.7;11.3;5.6;;;;2.0;7.0;
78519;SPS30;67818;51.986;5.648;2023-11-19T04:18:56;19.0;16.7;11.9;5.7;;;;2.0;7.0;
78519;SPS30;67818;51.986;5.648;2023-11-19T04:21:25;18.2;16.0;11.4;5.5;;;;2.0;6.0;
78519;SPS30;67818;51.986;5.648;2023-11-19T04:23:53;18.8;16.5;11.5;5.2;;;;2.0;6.0;
78519;SPS30;67818;51.986;5.648;2023-11-19T04:26:22;17.6;15.5;11.0;5.3;;;;2.0;6.0;
78519;SPS30;67818;51.986;5.648;2023-11-19T04:28:50;17.2;15.1;10.6;4.9;;;;2.0;6.0;
78519;SPS30;67818;51.986;5.648;2023-11-19T04:31:19;16.2;14.3;10.2;5.0;;;;2.0;6.0;
78519;SPS30;67818;51.986;5.648;2023-11-19T04:33:48;17.6;15.5;11.0;5.2;;;;2.0;5.0;
78519;SPS30;67818;51.986;5.648;2023-11-19T04:36:21;19.4;17.0;11.9;5.5;;;;2.0;5.0;
78519;SPS30;67818;51.986;5.648;2023-11-19T04:38:50;20.1;17.7;12.5;6.0;;;;2.0;4.0;
78519;SPS30;67818;51.986;5.648;2023-11-19T04:41:19;18.8;16.5;11.6;5.4;;;;2.0;4.0;
78519;SPS30;67818;51.986;5.648;2023-11-19T04:43:47;17.0;15.0;10.8;5.3;;;;2.0;4.0;
78519;SPS30;67818;51.986;5.648;2023-11-19T04:46:16;21.0;18.5;13.1;6.3;;;;2.0;4.0;
78519;SPS30;67818;51.986;5.648;2023-11-19T04:48:45;20.1;17.7;12.6;6.0;;;;2.0;4.0;
78519;SPS30;67818;51.986;5.648;2023-11-19T04:51:13;19.3;17.0;11.9;5.6;;;;2.0;4.0;
78519;SPS30;67818;51.986;5.648;2023-11-19T04:53:42;16.3;14.3;10.0;4.6;;;;2.0;4.0;
78519;SPS30;67818;51.986;5.648;2023-11-19T04:56:12;21.9;19.1;13.3;6.0;;;;2.0;4.0;
78519;SPS30;67818;51.986;5.648;2023-11-19T04:58:45;21.0;18.3;12.6;5.3;;;;2.0;4.0;
78519;SPS30;67818;51.986;5.648;2023-11-19T05:01:15;19.0;16.6;11.7;5.4;;;;2.0;4.0;
78519;SPS30;67818;51.986;5.648;2023-11-19T05:03:44;15.0;13.3;9.6;4.9;;;;2.0;4.0;
78519;SPS30;67818;51.986;5.648;2023-11-19T05:06:13;18.2;16.0;11.5;5.7;;;;2.0;4.0;
78519;SPS30;67818;51.986;5.648;2023-11-19T05:08:43;15.5;13.7;9.8;4.8;;;;2.0;4.0;
78519;SPS30;67818;51.986;5.648;2023-11-19T05:11:12;20.9;18.4;13.1;6.3;;;;2.0;5.0;
78519;SPS30;67818;51.986;5.648;2023-11-19T05:13:44;22.7;20.0;14.2;6.7;;;;2.0;5.0;
78519;SPS30;67818;51.986;5.648;2023-11-19T05:16:13;18.4;16.1;11.3;5.1;;;;2.0;5.0;
78519;SPS30;67818;51.986;5.648;2023-11-19T05:18:42;19.0;16.7;11.9;5.6;;;;2.0;5.0;
78519;SPS30;67818;51.986;5.648;2023-11-19T05:21:12;20.6;18.1;12.8;6.0;;;;2.0;6.0;
78519;SPS30;67818;51.986;5.648;2023-11-19T05:23:40;20.5;18.0;12.7;5.9;;;;2.0;6.0;
78519;SPS30;67818;51.986;5.648;2023-11-19T05:26:16;20.2;17.8;12.6;6.0;;;;2.0;6.0;
78519;SPS30;67818;51.986;5.648;2023-11-19T05:28:50;18.3;16.1;11.4;5.3;;;;2.0;6.0;
78519;SPS30;67818;51.986;5.648;2023-11-19T05:31:19;17.8;15.7;11.2;5.4;;;;2.0;6.0;
78519;SPS30;67818;51.986;5.648;2023-11-19T05:33:47;19.9;17.4;12.2;5.6;;;;3.0;7.0;
78519;SPS30;67818;51.986;5.648;2023-11-19T05:36:16;18.3;16.0;11.2;5.0;;;;3.0;7.0;
78519;SPS30;67818;51.986;5.648;2023-11-19T05:38:44;16.5;14.5;10.3;4.9;;;;3.0;7.0;
78519;SPS30;67818;51.986;5.648;2023-11-19T05:41:15;19.9;17.5;12.4;5.9;;;;3.0;7.0;
78519;SPS30;67818;51.986;5.648;2023-11-19T05:43:44;18.2;15.9;11.2;5.1;;;;3.0;7.0;
78519;SPS30;67818;51.986;5.648;2023-11-19T05:46:14;18.9;16.5;11.5;5.1;;;;3.0;7.0;
78519;SPS30;67818;51.986;5.648;2023-11-19T05:48:45;19.8;17.3;12.1;5.5;;;;3.0;7.0;
78519;SPS30;67818;51.986;5.648;2023-11-19T05:51:16;17.9;15.7;11.0;5.2;;;;3.0;7.0;
78519;SPS30;67818;51.986;5.648;2023-11-19T05:53:45;17.3;15.2;10.7;5.0;;;;3.0;7.0;
78519;SPS30;67818;51.986;5.648;2023-11-19T05:56:16;20.4;17.9;12.5;5.7;;;;3.0;7.0;
78519;SPS30;67818;51.986;5.648;2023-11-19T05:58:49;17.2;15.1;10.5;4.8;;;;3.0;7.0;
78519;SPS30;67818;51.986;5.648;2023-11-19T06:04:21;18.1;15.9;11.2;5.3;;;;2.0;8.0;
78519;SPS30;67818;51.986;5.648;2023-11-19T06:06:53;16.5;14.6;10.4;5.2;;;;2.0;8.0;
78519;SPS30;67818;51.986;5.648;2023-11-19T06:09:22;18.0;15.9;11.2;5.3;;;;2.0;8.0;
78519;SPS30;67818;51.986;5.648;2023-11-19T06:11:51;18.4;16.1;11.3;5.1;;;;2.0;9.0;
78519;SPS30;67818;51.986;5.648;2023-11-19T06:14:24;20.3;17.7;12.4;5.6;;;;2.0;9.0;
78519;SPS30;67818;51.986;5.648;2023-11-19T06:16:52;18.5;16.2;11.2;4.9;;;;2.0;9.0;
78519;SPS30;67818;51.986;5.648;2023-11-19T06:19:21;19.4;17.0;11.9;5.5;;;;2.0;10.0;
78519;SPS30;67818;51.986;5.648;2023-11-19T06:21:55;17.8;15.6;11.0;5.0;;;;2.0;10.0;
78519;SPS30;67818;51.986;5.648;2023-11-19T06:24:23;18.6;16.3;11.3;5.1;;;;2.0;11.0;
78519;SPS30;67818;51.986;5.648;2023-11-19T06:26:52;21.1;18.5;13.0;6.0;;;;2.0;12.0;
78519;SPS30;67818;51.986;5.648;2023-11-19T06:29:20;19.4;17.0;11.9;5.5;;;;2.0;12.0;
78519;SPS30;67818;51.986;5.648;2023-11-19T06:31:49;19.6;17.2;12.0;5.5;;;;2.0;11.0;
78519;SPS30;67818;51.986;5.648;2023-11-19T06:34:17;18.4;16.1;11.2;5.1;;;;2.0;11.0;
78519;SPS30;67818;51.986;5.648;2023-11-19T06:36:46;19.9;17.4;12.1;5.4;;;;2.0;11.0;
78519;SPS30;67818;51.986;5.648;2023-11-19T06:39:14;19.2;16.8;11.7;5.2;;;;2.0;10.0;
78519;SPS30;67818;51.986;5.648;2023-11-19T06:41:46;19.7;17.3;12.1;5.6;;;;2.0;11.0;
78519;SPS30;67818;51.986;5.648;2023-11-19T06:44:15;19.5;17.1;12.1;5.7;;;;2.0;11.0;
78519;SPS30;67818;51.986;5.648;2023-11-19T06:46:44;24.1;21.0;14.5;6.3;;;;2.0;11.0;
78519;SPS30;67818;51.986;5.648;2023-11-19T06:49:12;22.9;19.9;13.6;5.7;;;;2.0;11.0;
78519;SPS30;67818;51.986;5.648;2023-11-19T06:51:43;18.6;16.3;11.3;5.1;;;;2.0;11.0;
78519;SPS30;67818;51.986;5.648;2023-11-19T06:54:12;22.1;19.3;13.3;5.8;;;;2.0;11.0;
78519;SPS30;67818;51.986;5.648;2023-11-19T06:56:42;21.8;19.0;13.2;5.7;;;;2.0;12.0;
78519;SPS30;67818;51.986;5.648;2023-11-19T06:59:10;18.8;16.4;11.4;5.1;;;;2.0;13.0;
78519;SPS30;67818;51.986;5.648;2023-11-19T07:01:39;22.2;19.5;13.6;6.2;;;;2.0;13.0;
78519;SPS30;67818;51.986;5.648;2023-11-19T07:04:09;20.9;18.3;12.8;5.9;;;;2.0;13.0;
78519;SPS30;67818;51.986;5.648;2023-11-19T07:06:40;18.6;16.3;11.4;5.2;;;;2.0;13.0;
78519;SPS30;67818;51.986;5.648;2023-11-19T07:09:09;21.8;19.0;13.2;5.9;;;;2.0;14.0;
78519;SPS30;67818;51.986;5.648;2023-11-19T07:11:38;16.8;14.7;10.3;4.7;;;;2.0;14.0;
78519;SPS30;67818;51.986;5.648;2023-11-19T07:14:08;18.5;16.2;11.4;5.2;;;;2.0;15.0;
78519;SPS30;67818;51.986;5.648;2023-11-19T07:16:37;21.7;19.0;13.3;6.0;;;;2.0;16.0;
78519;SPS30;67818;51.986;5.648;2023-11-19T07:19:06;18.0;15.8;11.2;5.3;;;;2.0;17.0;
78519;SPS30;67818;51.986;5.648;2023-11-19T07:21:36;16.9;14.8;10.6;5.1;;;;2.0;19.0;
78519;SPS30;67818;51.986;5.648;2023-11-19T07:24:10;23.0;20.3;14.4;6.9;;;;2.0;22.0;
78519;SPS30;67818;51.986;5.648;2023-11-19T07:26:42;18.4;16.1;11.4;5.4;;;;2.0;24.0;
78519;SPS30;67818;51.986;5.648;2023-11-19T07:29:13;21.2;18.5;13.0;5.9;;;;2.0;27.0;
78519;SPS30;67818;51.986;5.648;2023-11-19T07:31:42;24.6;21.4;14.7;6.1;;;;2.0;28.0;
78519;SPS30;67818;51.986;5.648;2023-11-19T07:34:11;20.3;17.7;12.4;5.6;;;;2.0;29.0;
78519;SPS30;67818;51.986;5.648;2023-11-19T07:36:40;18.6;16.3;11.4;5.2;;;;2.0;33.0;
78519;SPS30;67818;51.986;5.648;2023-11-19T07:39:08;15.8;13.9;9.9;4.9;;;;2.0;34.0;
78519;SPS30;67818;51.986;5.648;2023-11-19T07:41:38;19.2;16.8;11.8;5.4;;;;2.0;33.0;
78519;SPS30;67818;51.986;5.648;2023-11-19T07:44:06;18.9;16.6;11.7;5.5;;;;2.0;33.0;
78519;SPS30;67818;51.986;5.648;2023-11-19T07:46:34;20.8;18.1;12.6;5.6;;;;2.0;33.0;
78519;SPS30;67818;51.986;5.648;2023-11-19T07:49:06;19.9;17.4;12.1;5.4;;;;2.0;35.0;
78519;SPS30;67818;51.986;5.648;2023-11-19T07:51:36;21.5;18.8;13.0;5.7;;;;2.0;35.0;
78519;SPS30;67818;51.986;5.648;2023-11-19T07:54:06;17.8;15.6;11.0;5.1;;;;2.0;35.0;
78519;SPS30;67818;51.986;5.648;2023-11-19T07:56:35;18.4;16.2;11.5;5.5;;;;2.0;33.0;
78519;SPS30;67818;51.986;5.648;2023-11-19T07:59:03;18.9;16.5;11.6;5.3;;;;2.0;32.0;
78519;SPS30;67818;51.986;5.648;2023-11-19T08:01:32;15.6;13.6;9.5;4.2;;;;2.0;33.0;
78519;SPS30;67818;51.986;5.648;2023-11-19T08:04:01;16.3;14.3;10.1;4.7;;;;2.0;34.0;
78519;SPS30;67818;51.986;5.648;2023-11-19T08:06:29;19.5;17.1;11.9;5.4;;;;2.0;35.0;
78519;SPS30;67818;51.986;5.648;2023-11-19T08:08:59;17.2;15.1;10.7;5.2;;;;2.0;38.0;
78519;SPS30;67818;51.986;5.648;2023-11-19T08:11:28;16.4;14.5;10.3;4.9;;;;2.0;37.0;
78519;SPS30;67818;51.986;5.648;2023-11-19T08:13:56;15.7;13.9;9.9;4.9;;;;2.0;36.0;
78519;SPS30;67818;51.986;5.648;2023-11-19T08:16:25;17.3;15.2;10.8;5.2;;;;2.0;37.0;
78519;SPS30;67818;51.986;5.648;2023-11-19T08:18:53;15.2;13.4;9.5;4.7;;;;2.0;49.0;
78519;SPS30;67818;51.986;5.648;2023-11-19T08:21:24;15.5;13.7;9.8;4.8;;;;2.0;48.0;
78519;SPS30;67818;51.986;5.648;2023-11-19T08:23:53;15.5;13.7;9.8;4.8;;;;2.0;46.0;
78519;SPS30;67818;51.986;5.648;2023-11-19T08:26:21;16.0;14.2;10.3;5.4;;;;2.0;45.0;
78519;SPS30;67818;51.986;5.648;2023-11-19T08:28:50;14.0;12.4;8.9;4.5;;;;2.0;44.0;
78519;SPS30;67818;51.986;5.648;2023-11-19T08:31:19;18.1;15.9;11.2;5.2;;;;2.0;42.0;
78519;SPS30;67818;51.986;5.648;2023-11-19T08:33:49;18.5;16.1;11.2;4.9;;;;2.0;39.0;
78519;SPS30;67818;51.986;5.648;2023-11-19T08:36:19;18.3;15.9;10.9;4.6;;;;2.0;39.0;
78519;SPS30;67818;51.986;5.648;2023-11-19T08:38:48;16.6;14.6;10.2;4.6;;;;2.0;39.0;
78519;SPS30;67818;51.986;5.648;2023-11-19T08:41:20;16.6;14.5;10.1;4.5;;;;2.0;38.0;
78519;SPS30;67818;51.986;5.648;2023-11-19T08:43:53;15.8;13.9;9.8;4.7;;;;2.0;35.0;
78519;SPS30;67818;51.986;5.648;2023-11-19T08:46:21;14.5;12.8;9.1;4.4;;;;2.0;35.0;
78519;SPS30;67818;51.986;5.648;2023-11-19T08:48:51;16.3;14.4;10.2;5.0;;;;2.0;38.0;
78519;SPS30;67818;51.986;5.648;2023-11-19T08:51:24;14.6;12.9;9.2;4.6;;;;2.0;38.0;
78519;SPS30;67818;51.986;5.648;2023-11-19T08:53:54;14.8;13.1;9.5;4.8;;;;2.0;48.0;
78519;SPS30;67818;51.986;5.648;2023-11-19T08:56:24;15.2;13.3;9.5;4.6;;;;2.0;49.0;
78519;SPS30;67818;51.986;5.648;2023-11-19T08:58:57;15.2;13.4;9.5;4.5;;;;1.0;47.0;
78519;SPS30;67818;51.986;5.648;2023-11-19T09:01:25;15.2;13.4;9.5;4.5;;;;1.0;45.0;
78519;SPS30;67818;51.986;5.648;2023-11-19T09:03:56;14.9;13.1;9.1;4.1;;;;1.0;46.0;
78519;SPS30;67818;51.986;5.648;2023-11-19T09:06:24;16.4;14.4;10.1;4.6;;;;1.0;45.0;
78519;SPS30;67818;51.986;5.648;2023-11-19T09:08:54;15.3;13.5;9.6;4.7;;;;1.0;44.0;
78519;SPS30;67818;51.986;5.648;2023-11-19T09:11:28;13.2;11.6;8.3;4.1;;;;1.0;40.0;
78519;SPS30;67818;51.986;5.648;2023-11-19T09:13:57;13.1;11.5;8.2;3.9;;;;1.0;32.0;
78519;SPS30;67818;51.986;5.648;2023-11-19T09:16:26;20.0;17.5;12.3;5.7;;;;1.0;30.0;
78519;SPS30;67818;51.986;5.648;2023-11-19T09:18:56;17.5;15.4;10.7;4.9;;;;1.0;38.0;
78519;SPS30;67818;51.986;5.648;2023-11-19T09:21:25;18.8;16.5;11.6;5.4;;;;1.0;40.0;
78519;SPS30;67818;51.986;5.648;2023-11-19T09:23:57;18.2;15.9;11.1;5.0;;;;1.0;38.0;
78519;SPS30;67818;51.986;5.648;2023-11-19T09:26:26;16.5;14.4;10.0;4.4;;;;1.0;37.0;
78519;SPS30;67818;51.986;5.648;2023-11-19T09:28:54;19.0;16.6;11.7;5.4;;;;1.0;34.0;
78519;SPS30;67818;51.986;5.648;2023-11-19T09:31:23;18.3;16.0;11.2;5.1;;;;1.0;33.0;
78519;SPS30;67818;51.986;5.648;2023-11-19T09:33:52;17.9;15.7;11.1;5.2;;;;1.0;33.0;
78519;SPS30;67818;51.986;5.648;2023-11-19T09:36:20;17.8;15.6;11.0;5.0;;;;1.0;32.0;
78519;SPS30;67818;51.986;5.648;2023-11-19T09:38:49;16.7;14.7;10.3;4.8;;;;1.0;31.0;
78519;SPS30;67818;51.986;5.648;2023-11-19T09:41:20;17.7;15.5;10.8;4.8;;;;1.0;31.0;
78519;SPS30;67818;51.986;5.648;2023-11-19T09:43:54;18.2;15.9;11.1;5.0;;;;1.0;29.0;
78519;SPS30;67818;51.986;5.648;2023-11-19T09:46:24;18.1;15.8;11.0;4.9;;;;1.0;29.0;
78519;SPS30;67818;51.986;5.648;2023-11-19T09:48:54;20.2;17.6;12.2;5.3;;;;1.0;29.0;
78519;SPS30;67818;51.986;5.648;2023-11-19T09:51:25;17.3;15.2;10.7;5.0;;;;1.0;28.0;
78519;SPS30;67818;51.986;5.648;2023-11-19T09:53:54;17.1;15.0;10.5;4.9;;;;1.0;29.0;
78519;SPS30;67818;51.986;5.648;2023-11-19T09:56:23;19.4;17.0;11.8;5.3;;;;1.0;31.0;
78519;SPS30;67818;51.986;5.648;2023-11-19T09:58:52;20.5;17.9;12.4;5.4;;;;1.0;31.0;
78519;SPS30;67818;51.986;5.648;2023-11-19T10:01:21;19.2;16.8;11.7;5.1;;;;1.0;33.0;
78519;SPS30;67818;51.986;5.648;2023-11-19T10:03:50;18.1;15.8;10.8;4.6;;;;1.0;34.0;
78519;SPS30;67818;51.986;5.648;2023-11-19T10:06:23;18.9;16.5;11.3;4.8;;;;1.0;34.0;
78519;SPS30;67818;51.986;5.648;2023-11-19T10:08:54;18.5;16.1;11.1;4.7;;;;1.0;34.0;
78519;SPS30;67818;51.986;5.648;2023-11-19T10:11:23;17.5;15.3;10.7;4.8;;;;1.0;34.0;
78519;SPS30;67818;51.986;5.648;2023-11-19T10:13:52;17.6;15.4;10.8;4.8;;;;1.0;33.0;
78519;SPS30;67818;51.986;5.648;2023-11-19T10:16:27;21.5;18.8;13.1;5.8;;;;1.0;37.0;
78519;SPS30;67818;51.986;5.648;2023-11-19T10:19:00;18.3;16.0;11.1;4.9;;;;1.0;42.0;
78519;SPS30;67818;51.986;5.648;2023-11-19T10:21:30;19.3;16.9;11.7;5.2;;;;1.0;40.0;
78519;SPS30;67818;51.986;5.648;2023-11-19T10:24:01;21.4;18.7;13.1;5.9;;;;1.0;39.0;
78519;SPS30;67818;51.986;5.648;2023-11-19T10:26:29;17.6;16.3;13.7;9.9;;;;1.0;41.0;
78519;SPS30;67818;51.986;5.648;2023-11-19T10:29:00;12.9;11.7;9.1;5.7;;;;1.0;42.0;
78519;SPS30;67818;51.986;5.648;2023-11-19T10:31:30;14.9;13.4;10.3;6.2;;;;1.0;42.0;
78519;SPS30;67818;51.986;5.648;2023-11-19T10:33:58;17.1;15.3;11.4;6.4;;;;1.0;54.0;
78519;SPS30;67818;51.986;5.648;2023-11-19T10:36:39;17.2;15.2;11.1;5.7;;;;1.0;62.0;
78519;SPS30;67818;51.986;5.648;2023-11-19T10:39:09;14.0;12.5;9.1;4.7;;;;1.0;68.0;
78519;SPS30;67818;51.986;5.648;2023-11-19T10:41:39;17.3;16.2;13.8;10.4;;;;1.0;98.0;
78519;SPS30;67818;51.986;5.648;2023-11-19T10:44:08;14.1;13.0;10.5;7.2;;;;1.0;99.0;
78519;SPS30;67818;51.986;5.648;2023-11-19T10:46:41;19.4;17.9;14.7;10.3;;;;1.0;91.0;
78519;SPS30;67818;51.986;5.648;2023-11-19T10:49:10;13.6;12.5;10.3;7.2;;;;1.0;107.0;
78519;SPS30;67818;51.986;5.648;2023-11-19T10:51:40;11.3;10.6;9.1;6.9;;;;1.0;119.0;
78519;SPS30;67818;51.986;5.648;2023-11-19T10:54:15;10.5;9.6;7.8;5.2;;;;1.0;111.0;
78519;SPS30;67818;51.986;5.648;2023-11-19T10:56:47;12.8;11.4;8.6;4.9;;;;1.0;106.0;
78519;SPS30;67818;51.986;5.648;2023-11-19T10:59:30;16.5;14.6;10.7;5.6;;;;1.0;78.0;
78519;SPS30;67818;51.986;5.648;2023-11-19T11:02:00;16.2;14.4;10.6;5.7;;;;1.0;83.0;
78519;SPS30;67818;51.986;5.648;2023-11-19T11:04:35;17.0;15.7;13.0;9.3;;;;1.0;56.0;
78519;SPS30;67818;51.986;5.648;2023-11-19T11:07:11;12.8;11.9;10.0;7.2;;;;1.0;64.0;
78519;SPS30;67818;51.986;5.648;2023-11-19T11:09:42;13.3;12.2;9.9;6.7;;;;1.0;96.0;
78519;SPS30;67818;51.986;5.648;2023-11-19T11:12:12;16.3;14.9;12.0;8.1;;;;1.0;108.0;
78519;SPS30;67818;51.986;5.648;2023-11-19T11:14:41;13.6;12.4;9.9;6.6;;;;1.0;123.0;
78519;SPS30;67818;51.986;5.648;2023-11-19T11:17:12;15.5;13.9;10.6;6.3;;;;1.0;114.0;
78519;SPS30;67818;51.986;5.648;2023-11-19T11:19:46;14.9;13.4;10.2;5.9;;;;1.0;113.0;
78519;SPS30;67818;51.986;5.648;2023-11-19T11:22:16;15.4;13.8;10.5;6.2;;;;1.0;110.0;
78519;SPS30;67818;51.986;5.648;2023-11-19T11:25:04;18.0;16.1;12.1;6.9;;;;1.0;88.0;
78519;SPS30;67818;51.986;5.648;2023-11-19T11:27:52;15.5;14.0;10.7;6.5;;;;1.0;91.0;
78519;SPS30;67818;51.986;5.648;2023-11-19T11:31:20;12.7;11.3;8.4;4.6;;;;1.0;78.0;
78519;SPS30;67818;51.986;5.648;2023-11-19T11:35:01;15.4;13.6;9.9;5.1;;;;1.0;82.0;
78519;SPS30;67818;51.986;5.648;2023-11-19T11:37:46;17.2;15.2;10.9;5.4;;;;1.0;99.0;
78519;SPS30;67818;51.986;5.648;2023-11-19T11:40:18;16.7;14.8;10.8;5.7;;;;1.0;104.0;
78519;SPS30;67818;51.986;5.648;2023-11-19T11:42:49;16.0;14.2;10.5;5.6;;;;1.0;118.0;
78519;SPS30;67818;51.986;5.648;2023-11-19T11:45:19;20.0;17.6;12.6;6.3;;;;1.0;112.0;
78519;SPS30;67818;51.986;5.648;2023-11-19T11:48:08;34.3;31.1;24.5;15.7;;;;1.0;124.0;
78519;SPS30;67818;51.986;5.648;2023-11-19T11:50:53;14.2;13.3;11.3;8.6;;;;1.0;129.0;
78519;SPS30;67818;51.986;5.648;2023-11-19T11:53:29;13.8;12.9;11.1;8.4;;;;1.0;125.0;
78519;SPS30;67818;51.986;5.648;2023-11-19T11:56:06;11.2;10.4;8.7;6.3;;;;1.0;130.0;
78519;SPS30;67818;51.986;5.648;2023-11-19T11:58:47;10.1;9.2;7.3;4.7;;;;1.0;128.0;
78519;SPS30;67818;51.986;5.648;2023-11-19T12:01:16;11.2;10.1;7.9;5.0;;;;1.0;121.0;
78519;SPS30;67818;51.986;5.648;2023-11-19T12:03:48;13.4;12.1;9.3;5.7;;;;1.0;100.0;
78519;SPS30;67818;51.986;5.648;2023-11-19T12:06:21;10.1;9.1;7.1;4.3;;;;1.0;90.0;
78519;SPS30;67818;51.986;5.648;2023-11-19T12:08:50;11.0;9.9;7.6;4.6;;;;1.0;71.0;
78519;SPS30;67818;51.986;5.648;2023-11-19T12:11:26;12.3;11.1;8.6;5.2;;;;1.0;59.0;
78519;SPS30;67818;51.986;5.648;2023-11-19T12:13:59;7.5;6.9;5.6;3.9;;;;1.0;54.0;